Аэропорт: Нахичевань. Нахичевань

ICAO: UBBN

METAR:
2018/09/23 11:00
UBBN 231100Z VRB02KT 9999 FEW050 25/09 Q1016 R14R/CLRD// NOSIG RMK MT OP QFE687
METAR:
2018/09/23 12:00
TAF UBBN 231103Z 2312/2412 VRB04KT 9999 FEW050 SCT100 TX27/2312Z TN11/2402Z PROB30 
      TEMPO 2312/2320 35014KT -TSRA SCT040CB BKN090